createdAt,value
2018-03-29T00:01:41.401Z,97807.55
2018-03-29T00:04:15.288Z,97810.06
2018-03-29T00:06:49.207Z,97811.34
2018-03-29T00:09:22.999Z,97813.74
2018-03-29T00:11:56.887Z,97804.42
2018-03-29T00:14:30.798Z,97807.95
2018-03-29T00:17:04.562Z,97807.27
2018-03-29T00:19:38.438Z,97808.02
2018-03-29T00:22:12.280Z,97808.61
2018-03-29T00:24:46.209Z,97806.95
2018-03-29T00:27:20.075Z,97816.16
2018-03-29T00:29:53.914Z,97816.16
2018-03-29T00:32:27.810Z,97817.42
2018-03-29T00:35:01.695Z,97819.53
2018-03-29T00:37:35.611Z,97819.36
2018-03-29T00:40:09.467Z,97823.75
2018-03-29T00:45:22.474Z,97825.95
2018-03-29T00:47:56.360Z,97837.55
2018-03-29T00:50:30.090Z,97837.03
2018-03-29T00:53:15.835Z,97841.28
2018-03-29T00:55:49.583Z,97846.13
2018-03-29T00:58:23.464Z,97852.09
2018-03-29T01:00:57.345Z,97858.42
2018-03-29T01:03:31.211Z,97863.33
2018-03-29T01:06:05.140Z,97861.62
2018-03-29T01:08:39.008Z,97856.31
2018-03-29T01:11:12.954Z,97863.04
2018-03-29T01:13:46.999Z,97865.35
2018-03-29T01:16:20.972Z,97865.38
2018-03-29T01:18:54.720Z,97863.92
2018-03-29T01:21:28.570Z,97867.98
2018-03-29T01:24:02.382Z,97871.71
2018-03-29T01:26:36.034Z,97880.89
2018-03-29T01:29:09.679Z,97878.75
2018-03-29T01:31:43.430Z,97877.02
2018-03-29T01:34:17.010Z,97875.14
2018-03-29T01:36:50.782Z,97878.75
2018-03-29T01:39:24.639Z,97883.72
2018-03-29T01:41:58.250Z,97889.37
2018-03-29T01:44:31.859Z,97893.53
2018-03-29T01:47:05.434Z,97890.33
2018-03-29T01:49:39.031Z,97890.88
2018-03-29T01:52:12.809Z,97895.58
2018-03-29T01:54:46.472Z,97894.73
2018-03-29T01:57:20.050Z,97900.95
2018-03-29T01:59:53.690Z,97903.52
2018-03-29T02:02:27.386Z,97905.16
2018-03-29T02:05:01.186Z,97901.31
2018-03-29T02:07:34.859Z,97905.79
2018-03-29T02:10:08.628Z,97910.33
2018-03-29T02:12:42.331Z,97911.41
2018-03-29T02:15:16.198Z,97912.02
2018-03-29T02:17:50.035Z,97918.05
2018-03-29T02:20:23.738Z,97917.12
2018-03-29T02:22:57.530Z,97916.38
2018-03-29T02:25:31.338Z,97918.92
2018-03-29T02:28:05.015Z,97925.36
2018-03-29T02:30:38.873Z,97926.98
2018-03-29T02:33:12.735Z,97928.80
2018-03-29T02:35:46.501Z,97926.75
2018-03-29T02:38:20.364Z,97935.42
2018-03-29T02:40:54.261Z,97934.75
2018-03-29T02:43:27.916Z,97925.27
2018-03-29T02:46:01.803Z,97929.06
2018-03-29T02:48:35.815Z,97935.91
2018-03-29T02:51:09.524Z,97937.25
2018-03-29T02:53:43.450Z,97939.73
2018-03-29T02:56:17.305Z,97940.98
2018-03-29T02:58:51.098Z,97938.19
2018-03-29T03:01:25.022Z,97938.73
2018-03-29T03:03:58.858Z,97941.13
2018-03-29T03:06:32.749Z,97942.78
2018-03-29T03:09:06.428Z,97943.41
2018-03-29T03:11:40.413Z,97951.05
2018-03-29T03:14:14.390Z,97948.91
2018-03-29T03:16:48.119Z,97958.58
2018-03-29T03:19:21.916Z,97956.27
2018-03-29T03:21:55.686Z,97959.37
2018-03-29T03:24:30.873Z,97965.34
2018-03-29T03:27:04.495Z,97965.58
2018-03-29T03:29:38.327Z,97966.00
2018-03-29T03:32:11.962Z,97964.83
2018-03-29T03:34:45.856Z,97966.31
2018-03-29T03:37:19.541Z,97960.09
2018-03-29T03:39:53.318Z,97962.47
2018-03-29T03:42:27.174Z,97965.84
2018-03-29T03:45:01.046Z,97959.53
2018-03-29T03:47:34.805Z,97958.64
2018-03-29T03:50:08.477Z,97954.77
2018-03-29T03:52:42.318Z,97951.45
2018-03-29T03:55:15.984Z,97949.36
2018-03-29T03:57:50.004Z,97948.16
2018-03-29T04:00:23.736Z,97949.20
2018-03-29T04:02:57.483Z,97956.02
2018-03-29T04:05:31.432Z,97962.59
2018-03-29T04:08:05.301Z,97964.08
2018-03-29T04:10:39.182Z,97964.17
2018-03-29T04:13:12.934Z,97974.75
2018-03-29T04:15:46.614Z,97968.59
2018-03-29T04:18:20.340Z,97969.53
2018-03-29T04:20:54.270Z,97971.27
2018-03-29T04:23:28.119Z,97977.29
2018-03-29T04:26:02.003Z,97978.66
2018-03-29T04:28:35.893Z,97968.05
2018-03-29T04:31:09.807Z,97970.45
2018-03-29T04:33:43.748Z,97978.77
2018-03-29T04:36:17.565Z,97987.42
2018-03-29T04:38:51.360Z,97983.69
2018-03-29T04:41:25.191Z,97976.42
2018-03-29T04:43:59.075Z,97973.17
2018-03-29T04:46:33.045Z,97970.33
2018-03-29T04:49:06.810Z,97974.00
2018-03-29T04:51:40.605Z,97974.77
2018-03-29T04:54:14.257Z,97980.14
2018-03-29T04:56:48.164Z,97979.14
2018-03-29T04:59:21.974Z,97975.43
2018-03-29T05:01:55.967Z,97976.42
2018-03-29T05:04:29.812Z,97977.51
2018-03-29T05:07:03.773Z,97979.50
2018-03-29T05:09:37.576Z,97985.53
2018-03-29T05:12:11.664Z,97984.72
2018-03-29T05:14:45.980Z,97983.13
2018-03-29T05:17:19.583Z,97985.81
2018-03-29T05:19:53.675Z,97980.16
2018-03-29T05:22:27.587Z,97990.11
2018-03-29T05:25:01.469Z,97998.13
2018-03-29T05:27:35.491Z,97995.54
2018-03-29T05:30:09.319Z,97991.21
2018-03-29T05:32:43.326Z,97991.92
2018-03-29T05:35:17.027Z,97988.53
2018-03-29T05:37:50.880Z,97985.45
2018-03-29T05:40:25.549Z,97990.33
2018-03-29T05:42:59.343Z,97995.98
2018-03-29T05:45:33.263Z,97998.09
2018-03-29T05:48:07.121Z,97993.91
2018-03-29T05:50:40.841Z,97996.41
2018-03-29T05:53:15.349Z,97994.36
2018-03-29T05:55:49.109Z,97993.42
2018-03-29T05:58:23.136Z,97990.88
2018-03-29T06:00:56.990Z,97996.71
2018-03-29T06:03:30.968Z,97994.77
2018-03-29T06:06:04.953Z,97987.60
2018-03-29T06:08:38.694Z,97995.37
2018-03-29T06:11:12.346Z,97992.00
2018-03-29T06:13:46.226Z,97994.98
2018-03-29T06:16:20.170Z,97999.24
2018-03-29T06:18:58.968Z,97994.35
2018-03-29T06:21:33.029Z,98000.50
2018-03-29T06:24:07.172Z,97996.11
2018-03-29T06:26:41.157Z,98000.10
2018-03-29T06:29:15.908Z,97995.94
2018-03-29T06:31:49.600Z,98001.91
2018-03-29T06:34:23.669Z,98000.65
2018-03-29T06:37:11.866Z,98002.64
2018-03-29T06:39:45.828Z,98007.23
2018-03-29T06:42:19.692Z,98005.78
2018-03-29T06:44:54.256Z,98003.27
2018-03-29T06:47:27.940Z,98010.27
2018-03-29T06:50:01.770Z,98014.06
2018-03-29T06:52:35.580Z,98011.61
2018-03-29T06:55:09.552Z,98016.60
2018-03-29T06:57:43.402Z,98013.11
2018-03-29T07:00:17.280Z,98013.97
2018-03-29T07:02:51.107Z,98012.59
2018-03-29T07:05:25.074Z,98010.70
2018-03-29T07:07:58.898Z,98022.09
2018-03-29T07:10:32.821Z,98018.19
2018-03-29T07:13:06.548Z,98018.75
2018-03-29T07:15:40.288Z,98016.98
2018-03-29T07:18:14.208Z,98024.18
2018-03-29T07:20:48.129Z,98022.67
2018-03-29T07:23:21.996Z,98026.81
2018-03-29T07:25:55.942Z,98028.95
2018-03-29T07:28:29.695Z,98030.16
2018-03-29T07:31:03.377Z,98030.39
2018-03-29T07:33:37.249Z,98028.95
2018-03-29T07:36:11.120Z,98029.56
2018-03-29T07:38:45.016Z,98033.56
2018-03-29T07:41:18.895Z,98037.70
2018-03-29T07:43:52.781Z,98034.59
2018-03-29T07:46:26.720Z,98037.62
2018-03-29T07:49:00.469Z,98042.84
2018-03-29T07:51:34.438Z,98039.08
2018-03-29T07:54:08.260Z,98042.01
2018-03-29T07:56:41.946Z,98040.73
2018-03-29T07:59:15.804Z,98045.13
2018-03-29T08:01:49.738Z,98040.78
2018-03-29T08:04:23.435Z,98043.69
2018-03-29T08:06:57.172Z,98048.34
2018-03-29T08:09:30.972Z,98047.45
2018-03-29T08:12:04.853Z,98048.26
2018-03-29T08:14:40.515Z,98047.91
2018-03-29T08:17:14.456Z,98058.02
2018-03-29T08:19:48.546Z,98060.10
2018-03-29T08:22:22.330Z,98058.77
2018-03-29T08:24:56.282Z,98059.34
2018-03-29T08:27:30.134Z,98059.09
2018-03-29T08:30:04.086Z,98067.22
2018-03-29T08:32:38.779Z,98066.89
2018-03-29T08:35:12.608Z,98066.64
2018-03-29T08:37:46.383Z,98069.94
2018-03-29T08:40:20.316Z,98069.19
2018-03-29T08:42:54.289Z,98063.73
2018-03-29T08:45:28.068Z,98065.73
2018-03-29T08:48:02.216Z,98069.38
2018-03-29T08:50:35.902Z,98069.55
2018-03-29T08:53:09.691Z,98074.64
2018-03-29T08:55:43.506Z,98081.45
2018-03-29T08:58:17.436Z,98079.31
2018-03-29T09:00:51.193Z,98075.97
2018-03-29T09:03:25.107Z,98078.27
2018-03-29T09:05:58.848Z,98076.99
2018-03-29T09:08:32.919Z,98078.67
2018-03-29T09:11:06.666Z,98082.88
2018-03-29T09:13:40.570Z,98074.16
2018-03-29T09:16:14.401Z,98078.59
2018-03-29T09:18:48.080Z,98079.47
2018-03-29T09:21:22.060Z,98079.83
2018-03-29T09:23:55.729Z,98088.30
2018-03-29T09:26:29.630Z,98093.45
2018-03-29T09:29:03.496Z,98088.83
2018-03-29T09:31:37.403Z,98084.25
2018-03-29T09:34:11.903Z,98096.19
2018-03-29T09:36:45.710Z,98094.16
2018-03-29T09:39:19.635Z,98093.84
2018-03-29T09:41:53.503Z,98094.94
2018-03-29T09:44:27.389Z,98096.02
2018-03-29T09:47:01.163Z,98096.16
2018-03-29T09:49:35.066Z,98102.63
2018-03-29T09:52:08.953Z,98100.11
2018-03-29T09:54:42.878Z,98103.66
2018-03-29T09:57:16.685Z,98098.84
2018-03-29T09:59:50.818Z,98099.47
2018-03-29T10:02:25.223Z,98099.65
2018-03-29T10:05:03.822Z,98094.70
2018-03-29T10:07:46.449Z,98090.02
2018-03-29T10:10:20.393Z,98097.19
2018-03-29T10:12:54.111Z,98096.23
2018-03-29T10:15:28.011Z,98089.69
2018-03-29T10:18:01.855Z,98093.80
2018-03-29T10:20:35.983Z,98094.19
2018-03-29T10:23:09.845Z,98093.27
2018-03-29T10:25:44.848Z,98083.44
2018-03-29T10:28:18.553Z,98081.02
2018-03-29T10:30:52.378Z,98087.41
2018-03-29T10:33:26.205Z,98080.56
2018-03-29T10:36:00.050Z,98074.30
2018-03-29T10:38:34.036Z,98071.34
2018-03-29T10:41:07.995Z,98064.28
2018-03-29T10:43:41.694Z,98074.95
2018-03-29T10:46:15.600Z,98055.70
2018-03-29T10:48:49.524Z,98066.66
2018-03-29T10:51:23.258Z,98061.19
2018-03-29T10:53:57.948Z,98069.88
2018-03-29T10:56:31.832Z,98061.27
2018-03-29T10:59:05.590Z,98060.13
2018-03-29T11:01:39.506Z,98053.84
2018-03-29T11:04:13.431Z,98052.31
2018-03-29T11:06:47.088Z,98055.22
2018-03-29T11:09:20.949Z,98055.84
2018-03-29T11:11:54.822Z,98048.99
2018-03-29T11:14:28.564Z,98042.18
2018-03-29T11:17:02.570Z,98047.84
2018-03-29T11:19:36.180Z,98057.29
2018-03-29T11:22:09.866Z,98062.62
2018-03-29T11:24:43.500Z,98067.48
2018-03-29T11:27:17.178Z,98078.26
2018-03-29T11:29:50.857Z,98082.19
2018-03-29T11:32:24.559Z,98085.20
2018-03-29T11:34:58.330Z,98082.79
2018-03-29T11:37:31.958Z,98074.95
2018-03-29T11:40:05.576Z,98080.73
2018-03-29T11:42:39.198Z,98088.56
2018-03-29T11:45:12.818Z,98100.02
2018-03-29T11:47:46.486Z,98107.55
2018-03-29T11:50:20.088Z,98129.97
2018-03-29T11:52:53.794Z,98123.12
2018-03-29T11:55:27.406Z,98108.59
2018-03-29T11:58:00.968Z,98102.39
2018-03-29T12:00:34.742Z,98115.06
2018-03-29T12:03:08.472Z,98108.63
2018-03-29T12:05:42.012Z,98100.58
2018-03-29T12:08:15.547Z,98092.16
2018-03-29T12:10:49.242Z,98099.67
2018-03-29T12:13:22.875Z,98090.11
2018-03-29T12:15:56.680Z,98107.00
2018-03-29T12:18:30.363Z,98100.05
2018-03-29T12:21:03.917Z,98108.33
2018-03-29T12:23:37.475Z,98102.96
2018-03-29T12:26:11.287Z,98109.83
2018-03-29T12:28:44.867Z,98106.63
2018-03-29T12:31:18.472Z,98107.68
2018-03-29T12:33:52.054Z,98119.09
2018-03-29T12:36:25.710Z,98126.30
2018-03-29T12:38:59.363Z,98140.54
2018-03-29T12:41:32.987Z,98139.68
2018-03-29T12:44:06.775Z,98145.69
2018-03-29T12:46:40.546Z,98156.93
2018-03-29T12:49:14.276Z,98167.00
2018-03-29T12:51:47.822Z,98165.15
2018-03-29T12:54:21.504Z,98166.00
2018-03-29T12:59:58.161Z,98149.66
2018-03-29T13:02:31.654Z,98149.86
2018-03-29T13:05:05.337Z,98141.16
2018-03-29T13:07:38.853Z,98133.92
2018-03-29T13:10:12.465Z,98127.72
2018-03-29T13:12:46.053Z,98130.97
2018-03-29T13:15:19.657Z,98118.66
2018-03-29T13:17:53.512Z,98117.47
2018-03-29T13:20:27.525Z,98111.02
2018-03-29T13:23:01.078Z,98095.91
2018-03-29T13:25:34.690Z,98090.17
2018-03-29T13:28:08.223Z,98087.84
2018-03-29T13:30:41.794Z,98069.41
2018-03-29T13:33:15.310Z,98067.11
2018-03-29T13:35:48.942Z,98067.05
2018-03-29T13:38:22.725Z,98056.57
2018-03-29T13:40:56.250Z,98062.88
2018-03-29T13:43:30.110Z,98060.98
2018-03-29T13:46:03.603Z,98054.59
2018-03-29T13:48:37.342Z,98057.09
2018-03-29T13:51:10.901Z,98055.44
2018-03-29T13:53:44.570Z,98055.05
2018-03-29T13:56:19.214Z,98052.90
2018-03-29T13:58:52.848Z,98052.83
2018-03-29T14:01:26.549Z,98052.84
2018-03-29T14:04:00.140Z,98052.45
2018-03-29T14:06:33.881Z,98047.09
2018-03-29T14:09:07.462Z,98040.63
2018-03-29T14:11:40.980Z,98036.72
2018-03-29T14:14:14.601Z,98041.02
2018-03-29T14:16:48.286Z,98041.02
2018-03-29T14:19:22.045Z,98048.10
2018-03-29T14:21:55.646Z,98043.72
2018-03-29T14:24:29.266Z,98055.66
2018-03-29T14:27:02.831Z,98048.52
2018-03-29T14:29:36.466Z,98051.70
2018-03-29T14:32:10.022Z,98038.08
2018-03-29T14:34:43.570Z,98042.70
2018-03-29T14:37:17.362Z,98044.80
2018-03-29T14:39:51.141Z,98039.00
2018-03-29T14:42:24.705Z,98037.33
2018-03-29T14:44:58.313Z,98047.34
2018-03-29T14:47:32.095Z,98048.41
2018-03-29T14:50:05.758Z,98051.83
2018-03-29T14:52:39.346Z,98052.98
2018-03-29T14:55:13.002Z,98048.45
2018-03-29T14:57:46.596Z,98047.00
2018-03-29T15:00:20.126Z,98048.44
2018-03-29T15:02:53.915Z,98026.19
2018-03-29T15:05:27.657Z,98030.14
2018-03-29T15:08:01.626Z,98017.03
2018-03-29T15:10:35.185Z,98019.30
2018-03-29T15:13:09.034Z,98007.39
2018-03-29T15:15:42.681Z,98017.27
2018-03-29T15:18:16.341Z,98013.08
2018-03-29T15:20:49.954Z,98011.20
2018-03-29T15:23:24.205Z,98005.47
2018-03-29T15:25:57.754Z,98005.74
2018-03-29T15:28:31.395Z,98000.76
2018-03-29T15:31:04.901Z,98003.86
2018-03-29T15:33:38.601Z,97999.48
2018-03-29T15:36:12.427Z,97997.34
2018-03-29T15:38:46.063Z,97993.62
2018-03-29T15:41:19.583Z,98001.45
2018-03-29T15:43:53.231Z,98005.34
2018-03-29T15:46:26.752Z,97998.70
2018-03-29T15:49:00.563Z,98005.20
2018-03-29T15:51:34.289Z,98000.83
2018-03-29T15:54:07.830Z,97997.24
2018-03-29T15:56:41.526Z,97992.94
2018-03-29T15:59:15.134Z,97988.89
2018-03-29T16:01:48.750Z,97981.02
2018-03-29T16:04:22.536Z,97990.39
2018-03-29T16:06:56.069Z,97995.70
2018-03-29T16:09:29.829Z,97992.25
2018-03-29T16:12:03.440Z,97997.41
2018-03-29T16:14:37.107Z,97992.62
2018-03-29T16:17:10.921Z,97986.95
2018-03-29T16:19:44.727Z,97986.25
2018-03-29T16:22:18.317Z,97975.25
2018-03-29T16:24:52.130Z,97979.22
2018-03-29T16:27:25.906Z,97977.77
2018-03-29T16:29:59.530Z,97978.31
2018-03-29T16:32:33.197Z,97978.82
2018-03-29T16:35:06.815Z,97975.78
2018-03-29T16:37:40.594Z,97984.28
2018-03-29T16:40:14.413Z,97985.14
2018-03-29T16:42:47.941Z,97982.13
2018-03-29T16:45:21.562Z,97989.39
2018-03-29T16:47:55.130Z,97991.98
2018-03-29T16:50:28.857Z,97999.94
2018-03-29T16:53:02.546Z,98000.66
2018-03-29T16:55:36.430Z,98002.59
2018-03-29T16:58:10.088Z,98001.65
2018-03-29T17:00:43.771Z,97998.91
2018-03-29T17:03:17.286Z,97999.12
2018-03-29T17:05:50.836Z,98005.99
2018-03-29T17:08:24.474Z,98000.36
2018-03-29T17:10:58.044Z,98008.45
2018-03-29T17:13:31.818Z,98012.84
2018-03-29T17:16:05.406Z,98013.00
2018-03-29T17:18:39.101Z,98013.69
2018-03-29T17:21:12.637Z,98021.47
2018-03-29T17:23:46.341Z,98028.03
2018-03-29T17:26:19.853Z,98026.95
2018-03-29T17:28:53.529Z,98033.70
2018-03-29T17:31:27.037Z,98032.30
2018-03-29T17:34:00.699Z,98041.22
2018-03-29T17:36:34.234Z,98044.84
2018-03-29T17:39:08.162Z,98043.28
2018-03-29T17:41:41.817Z,98052.31
2018-03-29T17:44:15.331Z,98050.44
2018-03-29T17:46:48.822Z,98051.36
2018-03-29T17:49:22.357Z,98063.73
2018-03-29T17:51:56.042Z,98062.15
2018-03-29T17:54:29.722Z,98062.12
2018-03-29T17:57:03.350Z,98063.96
2018-03-29T17:59:36.957Z,98062.70
2018-03-29T18:02:10.655Z,98070.31
2018-03-29T18:04:44.325Z,98070.92
2018-03-29T18:07:18.082Z,98064.32
2018-03-29T18:09:51.746Z,98071.56
2018-03-29T18:12:25.370Z,98081.02
2018-03-29T18:14:59.061Z,98080.55
2018-03-29T18:17:32.714Z,98081.23
2018-03-29T18:20:06.430Z,98084.30
2018-03-29T18:22:40.050Z,98076.34
2018-03-29T18:25:13.651Z,98079.84
2018-03-29T18:27:47.286Z,98083.24
2018-03-29T18:30:20.970Z,98083.55
2018-03-29T18:32:54.688Z,98087.49
2018-03-29T18:35:28.454Z,98087.97
2018-03-29T18:38:02.137Z,98086.86
2018-03-29T18:40:35.794Z,98087.01
2018-03-29T18:43:09.375Z,98092.81
2018-03-29T18:45:43.018Z,98096.47
2018-03-29T18:48:16.557Z,98093.82
2018-03-29T18:50:50.142Z,98102.36
2018-03-29T18:53:23.829Z,98098.98
2018-03-29T18:55:57.619Z,98105.95
2018-03-29T18:58:31.154Z,98099.18
2018-03-29T19:01:04.873Z,98099.92
2018-03-29T19:03:38.439Z,98104.98
2018-03-29T19:09:21.807Z,98099.34
2018-03-29T19:11:55.490Z,98107.05
2018-03-29T19:14:29.045Z,98104.49
2018-03-29T19:17:02.689Z,98105.19
2018-03-29T19:19:36.436Z,98101.64
2018-03-29T19:22:10.202Z,98111.92
2018-03-29T19:24:43.746Z,98112.91
2018-03-29T19:27:17.362Z,98113.25
2018-03-29T19:29:51.146Z,98114.39
2018-03-29T19:32:24.774Z,98112.08
2018-03-29T19:34:58.288Z,98117.94
2018-03-29T19:37:31.826Z,98120.92
2018-03-29T19:40:05.472Z,98121.62
2018-03-29T19:42:39.074Z,98121.18
2018-03-29T19:45:12.741Z,98126.23
2018-03-29T19:47:46.306Z,98126.78
2018-03-29T19:50:19.889Z,98125.05
2018-03-29T19:52:53.569Z,98119.73
2018-03-29T19:55:27.121Z,98118.06
2018-03-29T19:58:00.647Z,98121.30
2018-03-29T20:00:34.451Z,98123.89
2018-03-29T20:03:08.022Z,98125.50
2018-03-29T20:05:41.604Z,98112.89
2018-03-29T20:08:15.378Z,98117.80
2018-03-29T20:10:48.973Z,98118.52
2018-03-29T20:13:22.570Z,98120.23
2018-03-29T20:15:56.210Z,98119.25
2018-03-29T20:18:29.984Z,98124.59
2018-03-29T20:21:03.710Z,98117.06
2018-03-29T20:23:37.341Z,98117.72
2018-03-29T20:26:10.917Z,98118.27
2018-03-29T20:28:44.561Z,98120.19
2018-03-29T20:31:18.114Z,98120.81
2018-03-29T20:33:51.798Z,98119.94
2018-03-29T20:36:25.378Z,98122.19
2018-03-29T20:38:58.958Z,98120.98
2018-03-29T20:41:32.547Z,98120.45
2018-03-29T20:44:06.165Z,98113.87
2018-03-29T20:46:39.765Z,98119.46
2018-03-29T20:49:13.400Z,98116.81
2018-03-29T20:51:47.078Z,98123.78
2018-03-29T20:54:20.625Z,98123.41
2018-03-29T20:56:54.214Z,98121.52
2018-03-29T20:59:27.856Z,98120.98
2018-03-29T21:02:01.394Z,98119.16
2018-03-29T21:04:34.893Z,98120.28
2018-03-29T21:07:08.498Z,98120.24
2018-03-29T21:09:42.159Z,98119.43
2018-03-29T21:12:15.911Z,98118.84
2018-03-29T21:14:49.493Z,98114.66
2018-03-29T21:17:23.067Z,98116.80
2018-03-29T21:19:56.762Z,98109.09
2018-03-29T21:22:30.409Z,98112.90
2018-03-29T21:25:03.994Z,98115.84
2018-03-29T21:27:37.651Z,98111.52
2018-03-29T21:30:11.302Z,98114.38
2018-03-29T21:32:45.014Z,98115.52
2018-03-29T21:35:18.620Z,98115.79
2018-03-29T21:37:52.262Z,98119.50
2018-03-29T21:40:25.921Z,98122.67
2018-03-29T21:42:59.506Z,98123.64
2018-03-29T21:45:33.089Z,98127.01
2018-03-29T21:48:06.713Z,98120.56
2018-03-29T21:50:40.401Z,98118.80
2018-03-29T21:53:14.017Z,98121.67
2018-03-29T21:55:47.588Z,98122.31
2018-03-29T21:58:21.137Z,98118.76
2018-03-29T22:00:54.821Z,98116.72
2018-03-29T22:03:28.377Z,98113.97
2018-03-29T22:06:01.994Z,98116.22
2018-03-29T22:08:35.568Z,98114.84
2018-03-29T22:11:09.102Z,98108.48
2018-03-29T22:13:48.843Z,98108.91
2018-03-29T22:16:22.487Z,98106.34
2018-03-29T22:18:56.226Z,98112.27
2018-03-29T22:21:29.701Z,98111.39
2018-03-29T22:24:03.267Z,98118.87
2018-03-29T22:26:37.041Z,98109.95
2018-03-29T22:29:10.674Z,98102.50
2018-03-29T22:31:44.287Z,98102.17
2018-03-29T22:34:17.927Z,98103.77
2018-03-29T22:36:51.589Z,98105.48
2018-03-29T22:39:25.239Z,98105.98
2018-03-29T22:41:58.806Z,98101.66
2018-03-29T22:44:32.441Z,98106.20
2018-03-29T22:47:06.185Z,98097.19
2018-03-29T22:49:39.857Z,98099.23
2018-03-29T22:52:13.530Z,98098.91
2018-03-29T22:54:47.098Z,98103.37
2018-03-29T22:57:20.848Z,98104.38
2018-03-29T22:59:54.361Z,98104.60
2018-03-29T23:02:27.921Z,98106.71
2018-03-29T23:05:01.497Z,98109.29
2018-03-29T23:07:35.246Z,98101.95
2018-03-29T23:10:08.838Z,98107.91
2018-03-29T23:12:42.345Z,98100.35
2018-03-29T23:15:15.867Z,98104.86
2018-03-29T23:17:49.393Z,98104.42
2018-03-29T23:20:23.222Z,98098.50
2018-03-29T23:22:56.750Z,98101.84
2018-03-29T23:25:30.288Z,98101.30
2018-03-29T23:28:03.857Z,98100.83
2018-03-29T23:30:37.582Z,98101.08
2018-03-29T23:33:11.201Z,98099.19
2018-03-29T23:35:44.824Z,98095.02
2018-03-29T23:38:18.491Z,98091.09
2018-03-29T23:40:52.050Z,98088.69
2018-03-29T23:43:25.608Z,98091.78
2018-03-29T23:45:59.309Z,98087.38
2018-03-29T23:48:32.837Z,98088.66
2018-03-29T23:51:06.498Z,98078.77
2018-03-29T23:53:40.173Z,98077.14
2018-03-29T23:56:13.741Z,98076.84
2018-03-29T23:58:47.411Z,98072.41
